Time;durP1;ratioP1;P1;durP2;ratioP2;P2;SDS_P1;SDS_P2;PMS_P1;PMS_P2;Temp;Humidity;BMP_temperature;BMP_pressure;BME280_temperature;BME280_humidity;BME280_pressure;Samples;Min_cycle;Max_cycle;Signal;HPM_P1;HPM_P2
2022/04/21 00:02:21;;;;;;;;;;;;;;;20.98;37.99;101235.66;4948803;29;19934;-84
2022/04/21 00:04:46;;;;;;;;;;;;;;;20.97;38.04;101228.56;4934312;29;20005;-82
2022/04/21 00:07:11;;;;;;;;;;;;;;;20.97;37.83;101231.31;4939523;29;20383;-83
2022/04/21 00:09:37;;;;;;;;;;;;;;;20.95;37.73;101226.09;4952675;29;19969;-83
2022/04/21 00:12:02;;;;;;;;;;;;;;;20.96;38.01;101226.91;4951697;29;19931;-82
2022/04/21 00:14:27;;;;;;;;;;;;;;;20.95;37.94;101226.09;4960754;28;20025;-83
2022/04/21 00:16:54;;;;;;;;;;;;;;;20.95;37.93;101222.56;4966035;28;20366;-83
2022/04/21 00:19:20;;;;;;;;;;;;;;;20.94;37.94;101227.22;4952398;29;20021;-83
2022/04/21 00:24:29;;;;;;;;;;;;;;;20.94;37.82;101223.66;4954792;29;20279;-83
2022/04/21 00:26:54;;;;;;;;;;;;;;;20.92;37.67;101223.97;4949222;29;19923;-83
2022/04/21 00:29:20;;;;;;;;;;;;;;;20.92;38.08;101223.16;4945341;29;19961;-83
2022/04/21 00:31:45;;;;;;;;;;;;;;;20.91;38.02;101211.34;4937018;29;19923;-84
2022/04/21 00:34:10;;;;;;;;;;;;;;;20.92;38.06;101223.97;4949069;29;19927;-84
2022/04/21 00:36:35;;;;;;;;;;;;;;;20.91;38.13;101221.50;4949723;29;20375;-84
2022/04/21 00:39:01;;;;;;;;;;;;;;;20.90;37.86;101223.44;4940827;29;20429;-83
2022/04/21 00:41:26;;;;;;;;;;;;;;;20.90;37.96;101212.47;4942528;28;20361;-83
2022/04/21 00:43:51;;;;;;;;;;;;;;;20.89;37.81;101215.50;4965416;28;20264;-83
2022/04/21 00:46:21;;;;;;;;;;;;;;;20.90;37.88;101217.16;4944083;29;19922;-84
2022/04/21 00:48:48;;;;;;;;;;;;;;;20.89;38.04;101215.50;4949560;29;19938;-83
2022/04/21 00:51:13;;;;;;;;;;;;;;;20.89;37.85;101223.72;4949183;29;19922;-83
2022/04/21 00:53:39;;;;;;;;;;;;;;;20.89;37.97;101212.75;4954175;29;19926;-84
2022/04/21 00:56:05;;;;;;;;;;;;;;;20.88;37.87;101209.19;4965267;28;20402;-84
2022/04/21 00:58:30;;;;;;;;;;;;;;;20.87;38.22;101221.31;4965562;28;19925;-83
2022/04/21 01:00:55;;;;;;;;;;;;;;;20.88;38.21;101219.38;4927352;29;19930;-83
2022/04/21 01:03:21;;;;;;;;;;;;;;;20.86;38.18;101218.84;4954341;28;19930;-84
2022/04/21 01:05:47;;;;;;;;;;;;;;;20.85;38.23;101215.28;4952490;29;20515;-84
2022/04/21 01:08:13;;;;;;;;;;;;;;;20.85;38.34;101209.81;4968067;28;19923;-83
2022/04/21 01:10:39;;;;;;;;;;;;;;;20.85;38.02;101214.50;4952758;28;20406;-84
2022/04/21 01:13:06;;;;;;;;;;;;;;;20.84;38.19;101213.69;4949046;28;19919;-83
2022/04/21 01:15:31;;;;;;;;;;;;;;;20.84;38.28;101212.84;4944798;29;19974;-83
2022/04/21 01:17:57;;;;;;;;;;;;;;;20.83;37.96;101209.28;4944597;29;20330;-84
2022/04/21 01:20:23;;;;;;;;;;;;;;;20.83;38.16;101211.22;4953994;28;19926;-84
2022/04/21 01:22:49;;;;;;;;;;;;;;;20.82;38.24;101207.66;4973772;28;19943;-83
2022/04/21 01:25:14;;;;;;;;;;;;;;;20.82;38.17;101215.09;4952306;29;19922;-83
2022/04/21 01:27:40;;;;;;;;;;;;;;;20.82;38.13;101209.59;4953809;28;19933;-83
2022/04/21 01:30:07;;;;;;;;;;;;;;;20.81;38.26;101202.47;4956286;29;19941;-83
2022/04/21 01:32:35;;;;;;;;;;;;;;;20.80;38.21;101207.16;4948772;29;19918;-83
2022/04/21 01:35:01;;;;;;;;;;;;;;;20.79;38.28;101201.94;4972518;28;19930;-83
2022/04/21 01:42:54;;;;;;;;;;;;;;;20.78;38.09;101203.06;4956531;29;20278;-84
2022/04/21 01:45:20;;;;;;;;;;;;;;;20.77;38.25;101207.75;4967105;28;19926;-84
2022/04/21 01:47:46;;;;;;;;;;;;;;;20.77;38.25;101206.94;4955952;29;20328;-83
2022/04/21 01:50:11;;;;;;;;;;;;;;;20.76;38.34;101206.09;4971358;28;19923;-84
2022/04/21 01:52:37;;;;;;;;;;;;;;;20.77;38.28;101209.69;4956747;28;19939;-83
2022/04/21 01:55:06;;;;;;;;;;;;;;;20.75;38.29;101205.28;4970673;28;19952;-83
2022/04/21 01:57:31;;;;;;;;;;;;;;;20.75;38.28;101196.25;4955971;28;19922;-83
2022/04/21 01:59:57;;;;;;;;;;;;;;;20.75;38.53;101191.56;4955263;29;20279;-84
2022/04/21 02:02:22;;;;;;;;;;;;;;;20.74;38.15;101192.69;4952345;29;20398;-83
2022/04/21 02:04:47;;;;;;;;;;;;;;;20.74;38.33;101192.69;4955186;29;20271;-84
2022/04/21 02:07:14;;;;;;;;;;;;;;;20.73;38.07;101193.78;4956518;29;19926;-83
2022/04/21 02:09:40;;;;;;;;;;;;;;;20.73;38.29;101188.31;4955177;29;20375;-83
2022/04/21 02:12:06;;;;;;;;;;;;;;;20.73;38.23;101195.72;4950992;29;20320;-83
2022/04/21 02:14:31;;;;;;;;;;;;;;;20.72;38.13;101192.19;4966631;28;19950;-83
2022/04/21 02:16:57;;;;;;;;;;;;;;;20.72;38.44;101188.63;4951698;29;19926;-83
2022/04/21 02:19:22;;;;;;;;;;;;;;;20.72;38.29;101188.63;4951796;29;19984;-82
2022/04/21 02:21:47;;;;;;;;;;;;;;;20.71;38.33;101198.78;4943802;29;19934;-83
2022/04/21 02:24:12;;;;;;;;;;;;;;;20.71;38.22;101197.94;4955993;29;19981;-82
2022/04/21 02:26:38;;;;;;;;;;;;;;;20.72;38.34;101196.84;4955953;29;20030;-82
2022/04/21 02:29:03;;;;;;;;;;;;;;;20.70;38.19;101191.66;4955766;29;20053;-83
2022/04/21 02:31:28;;;;;;;;;;;;;;;20.70;38.41;101190.84;4948072;29;19974;-83
2022/04/21 02:33:53;;;;;;;;;;;;;;;20.70;38.38;101190.84;4951796;29;19927;-83
2022/04/21 02:36:19;;;;;;;;;;;;;;;20.68;38.16;101191.13;4940022;29;20378;-83
2022/04/21 02:38:44;;;;;;;;;;;;;;;20.68;38.38;101190.31;4951489;28;20290;-84
2022/04/21 02:41:09;;;;;;;;;;;;;;;20.67;38.16;101188.72;4953595;29;19944;-83
2022/04/21 02:43:34;;;;;;;;;;;;;;;20.68;38.42;101187.59;4956775;29;19929;-82
2022/04/21 02:46:00;;;;;;;;;;;;;;;20.66;38.47;101189.81;4955322;28;20383;-83
2022/04/21 02:48:25;;;;;;;;;;;;;;;20.66;38.39;101187.06;4967726;28;20291;-83
2022/04/21 02:50:50;;;;;;;;;;;;;;;20.65;38.17;101185.44;4953534;29;19934;-83
2022/04/21 02:53:17;;;;;;;;;;;;;;;20.65;38.28;101182.69;4955104;28;19918;-83
2022/04/21 02:58:26;;;;;;;;;;;;;;;20.64;38.37;101189.31;4954804;29;19932;-83
2022/04/21 03:00:52;;;;;;;;;;;;;;;20.63;38.54;101187.66;4954186;29;20013;-83
2022/04/21 03:03:17;;;;;;;;;;;;;;;20.63;38.70;101191.22;4950839;29;19926;-83
2022/04/21 03:05:42;;;;;;;;;;;;;;;20.63;38.41;101184.91;4941037;29;19977;-83
2022/04/21 03:08:08;;;;;;;;;;;;;;;20.62;38.48;101192.34;4953741;29;19926;-84
2022/04/21 03:10:33;;;;;;;;;;;;;;;20.62;38.44;101184.13;4954462;28;20374;-83
2022/04/21 03:12:58;;;;;;;;;;;;;;;20.62;38.46;101183.31;4954786;28;19975;-83
2022/04/21 03:15:24;;;;;;;;;;;;;;;20.61;38.49;101182.47;4953084;29;19926;-84
2022/04/21 03:17:49;;;;;;;;;;;;;;;20.62;38.54;101188.78;4953939;28;19953;-83
2022/04/21 03:24:19;;;;;;;;;;;;;;;20.60;38.45;101186.34;4955007;28;19930;-83
2022/04/21 03:25:44;;;;;;;;;;;;;;;20.60;38.65;101182.78;4955817;29;20287;-83
2022/04/21 03:28:10;;;;;;;;;;;;;;;20.59;38.65;101181.97;4953604;28;19948;-83
2022/04/21 03:30:35;;;;;;;;;;;;;;;20.59;38.37;101181.97;4967393;28;20326;-82
2022/04/21 03:33:01;;;;;;;;;;;;;;;20.60;38.49;101185.53;4938914;29;19927;-85
2022/04/21 03:35:26;;;;;;;;;;;;;;;20.58;38.63;101188.56;4951451;29;19929;-84
2022/04/21 03:37:52;;;;;;;;;;;;;;;20.58;38.50;101183.06;4955214;29;19918;-83
2022/04/21 03:40:17;;;;;;;;;;;;;;;20.58;38.37;101183.06;4954724;28;19918;-82
2022/04/21 03:42:42;;;;;;;;;;;;;;;20.58;38.81;101185.00;4966458;28;19925;-82
2022/04/21 03:45:08;;;;;;;;;;;;;;;20.57;38.44;101184.19;4946017;29;20028;-83
2022/04/21 03:47:34;;;;;;;;;;;;;;;20.58;38.69;101196.78;4950177;29;19965;-83
2022/04/21 03:49:59;;;;;;;;;;;;;;;20.57;38.74;101192.44;4953520;28;19989;-83
2022/04/21 03:52:24;;;;;;;;;;;;;;;20.56;38.39;101196.28;4954974;29;19927;-83
2022/04/21 03:54:49;;;;;;;;;;;;;;;20.57;38.63;101202.59;4953294;29;19934;-83
2022/04/21 03:57:15;;;;;;;;;;;;;;;20.56;38.63;101196.28;4952770;29;19966;-82
2022/04/21 03:59:40;;;;;;;;;;;;;;;20.56;38.50;101200.94;4966302;28;20360;-82
2022/04/21 04:02:05;;;;;;;;;;;;;;;20.55;38.62;101202.88;4968643;28;19969;-82
2022/04/21 04:04:31;;;;;;;;;;;;;;;20.55;38.57;101197.41;4954725;28;19946;-82
2022/04/21 04:12:29;;;;;;;;;;;;;;;20.53;38.55;101196.84;4950105;29;19929;-83
2022/04/21 04:14:55;;;;;;;;;;;;;;;20.52;38.56;101196.03;4953984;29;19919;-83
2022/04/21 04:17:20;;;;;;;;;;;;;;;20.53;38.44;101196.84;4934021;28;19923;-82
2022/04/21 04:19:45;;;;;;;;;;;;;;;20.52;38.84;101193.28;4952464;29;19998;-82
2022/04/21 04:22:12;;;;;;;;;;;;;;;20.51;38.67;101188.09;4952744;28;20033;-83
2022/04/21 04:24:38;;;;;;;;;;;;;;;20.50;38.73;101195.50;4950001;28;19930;-82
2022/04/21 04:27:03;;;;;;;;;;;;;;;20.50;38.71;101198.25;4946548;29;19923;-82
2022/04/21 04:29:28;;;;;;;;;;;;;;;20.50;38.43;101195.50;4965456;28;19969;-82
2022/04/21 04:31:54;;;;;;;;;;;;;;;20.49;38.74;101188.41;4947786;29;20372;-83
2022/04/21 04:34:20;;;;;;;;;;;;;;;20.50;38.57;101192.75;4960791;28;19926;-83
2022/04/21 04:36:45;;;;;;;;;;;;;;;20.49;38.46;101193.09;4954216;28;20355;-83
2022/04/21 04:39:11;;;;;;;;;;;;;;;20.49;38.78;101193.09;4965532;28;19966;-83
2022/04/21 04:44:20;;;;;;;;;;;;;;;20.49;38.71;101207.63;4948316;29;19930;-83
2022/04/21 04:46:45;;;;;;;;;;;;;;;20.47;38.80;101209.84;4951841;29;19923;-83
2022/04/21 04:49:11;;;;;;;;;;;;;;;20.48;38.66;101214.19;4968264;28;19922;-84
2022/04/21 04:51:38;;;;;;;;;;;;;;;20.48;38.86;101216.13;4954137;28;19967;-83
2022/04/21 04:54:05;;;;;;;;;;;;;;;20.48;38.71;101216.13;4965337;28;19930;-83
2022/04/21 04:56:30;;;;;;;;;;;;;;;20.47;38.62;101214.50;4946735;29;19919;-84
2022/04/21 04:58:56;;;;;;;;;;;;;;;20.47;38.67;101214.50;4951494;28;19926;-83
2022/04/21 05:01:31;;;;;;;;;;;;;;;20.47;38.69;101212.56;4953661;28;19927;-83
2022/04/21 05:04:03;;;;;;;;;;;;;;;20.47;38.67;101217.25;4971668;28;20066;-83
2022/04/21 05:06:29;;;;;;;;;;;;;;;20.47;38.60;101214.50;4957080;28;19925;-84
2022/04/21 05:08:54;;;;;;;;;;;;;;;20.46;38.69;101223.84;4957140;28;20039;-83
2022/04/21 05:11:21;;;;;;;;;;;;;;;20.46;38.67;101219.19;4957334;28;19922;-83
2022/04/21 05:13:46;;;;;;;;;;;;;;;20.47;38.60;101214.50;4952144;28;20009;-80
2022/04/21 05:16:12;;;;;;;;;;;;;;;20.46;38.71;101215.59;4972567;28;20009;-81
2022/04/21 05:18:37;;;;;;;;;;;;;;;20.48;38.70;101213.38;4962236;28;19926;-81
2022/04/21 05:21:03;;;;;;;;;;;;;;;20.49;38.74;101210.34;4971789;28;20486;-80
2022/04/21 05:23:32;;;;;;;;;;;;;;;20.51;39.09;101201.81;4957232;28;19933;-80
2022/04/21 05:25:57;;;;;;;;;;;;;;;20.50;39.06;101206.50;4969327;28;20513;-80
2022/04/21 05:28:24;;;;;;;;;;;;;;;20.49;39.10;101204.88;4950919;29;20237;-80
2022/04/21 05:30:55;;;;;;;;;;;;;;;20.50;39.15;101206.50;4955741;28;19918;-80
2022/04/21 05:33:22;;;;;;;;;;;;;;;20.50;38.97;101209.22;4956649;29;19958;-80
2022/04/21 05:35:47;;;;;;;;;;;;;;;20.51;39.28;101221.03;4957377;28;20437;-80
2022/04/21 05:38:16;;;;;;;;;;;;;;;20.50;39.08;101219.41;4956368;28;19926;-80
2022/04/21 05:40:41;;;;;;;;;;;;;;;20.50;39.15;101205.69;4952462;29;19945;-79
2022/04/21 05:43:07;;;;;;;;;;;;;;;20.51;39.12;101210.03;4943336;29;19926;-79
2022/04/21 05:45:33;;;;;;;;;;;;;;;20.52;39.16;101211.69;4960719;28;19926;-79
2022/04/21 05:47:58;;;;;;;;;;;;;;;20.52;39.04;101214.44;4950290;29;19922;-79
2022/04/21 05:50:25;;;;;;;;;;;;;;;20.50;39.23;101214.72;4953552;29;19977;-78
2022/04/21 05:52:52;;;;;;;;;;;;;;;20.50;39.21;101206.50;4956420;28;19925;-79
2022/04/21 05:55:17;;;;;;;;;;;;;;;20.51;39.42;101204.56;4956713;29;19923;-79
2022/04/21 05:57:43;;;;;;;;;;;;;;;20.51;39.30;101204.56;4956041;28;19969;-78
2022/04/21 06:00:09;;;;;;;;;;;;;;;20.51;39.23;101204.56;4952370;29;20001;-79
2022/04/21 06:02:35;;;;;;;;;;;;;;;20.51;39.12;101199.91;4945109;29;20001;-81
2022/04/21 06:05:00;;;;;;;;;;;;;;;20.50;39.16;101195.50;4947726;28;19925;-79
2022/04/21 06:07:26;;;;;;;;;;;;;;;20.52;39.22;101200.72;4941137;29;19926;-76
2022/04/21 06:09:51;;;;;;;;;;;;;;;20.50;39.42;101202.94;4954504;29;20102;-79
2022/04/21 06:12:17;;;;;;;;;;;;;;;20.50;39.44;101202.94;4938507;29;19923;-79
2022/04/21 06:14:44;;;;;;;;;;;;;;;20.49;39.37;101201.31;4954145;28;19927;-79
2022/04/21 06:17:10;;;;;;;;;;;;;;;20.49;39.43;101202.13;4949616;28;20363;-79
2022/04/21 06:19:35;;;;;;;;;;;;;;;20.49;39.30;101199.38;4954722;29;19927;-78
2022/04/21 06:22:01;;;;;;;;;;;;;;;20.50;39.35;101203.75;4944906;28;19929;-78
2022/04/21 06:24:26;;;;;;;;;;;;;;;20.50;39.38;101201.00;4969974;28;19934;-78
2022/04/21 06:26:51;;;;;;;;;;;;;;;20.50;39.60;101206.50;4955820;28;19922;-77
2022/04/21 06:29:16;;;;;;;;;;;;;;;20.52;39.56;101209.75;4955891;29;20405;-81
2022/04/21 06:31:42;;;;;;;;;;;;;;;20.51;39.64;101202.66;4950932;29;20402;-76
2022/04/21 06:34:07;;;;;;;;;;;;;;;20.53;39.50;101202.34;4970853;28;19933;-76
2022/04/21 06:36:33;;;;;;;;;;;;;;;20.53;39.62;101202.34;4955023;29;20879;-79
2022/04/21 06:38:58;;;;;;;;;;;;;;;20.53;39.71;101196.84;4955912;29;19963;-77
2022/04/21 06:41:24;;;;;;;;;;;;;;;20.54;39.91;101203.97;4954823;28;20294;-78
2022/04/21 06:49:16;;;;;;;;;;;;;;;20.53;39.86;101205.88;4955458;29;19929;-80
2022/04/21 06:51:42;;;;;;;;;;;;;;;20.54;39.89;101198.50;4946404;28;19926;-74
2022/04/21 06:54:07;;;;;;;;;;;;;;;20.55;39.76;101199.34;4970094;28;20024;-77
2022/04/21 06:56:32;;;;;;;;;;;;;;;20.54;39.78;101198.50;4953608;28;19923;-77
2022/04/21 06:58:58;;;;;;;;;;;;;;;20.55;39.85;101193.84;4956222;28;19922;-75
2022/04/21 07:01:23;;;;;;;;;;;;;;;20.56;39.87;101201.75;4952705;29;19969;-77
2022/04/21 07:03:48;;;;;;;;;;;;;;;20.55;39.96;101194.66;4954214;29;20017;-78
2022/04/21 07:06:14;;;;;;;;;;;;;;;20.56;39.75;101185.28;4955635;28;19922;-78
2022/04/21 07:08:39;;;;;;;;;;;;;;;20.56;39.79;101190.78;4954245;28;19918;-78
2022/04/21 07:11:04;;;;;;;;;;;;;;;20.57;39.79;101184.19;4969687;28;19977;-77
2022/04/21 07:13:30;;;;;;;;;;;;;;;20.56;40.01;101195.47;4938508;28;19933;-79
2022/04/21 07:15:55;;;;;;;;;;;;;;;20.56;39.84;101189.97;4942693;29;19926;-78
2022/04/21 07:18:20;;;;;;;;;;;;;;;20.56;39.91;101190.78;4934296;29;20293;-78
2022/04/21 07:20:46;;;;;;;;;;;;;;;20.57;39.91;101194.38;4964633;28;20276;-78
2022/04/21 07:23:12;;;;;;;;;;;;;;;20.57;39.83;101194.38;4953467;29;19926;-78
2022/04/21 07:25:39;;;;;;;;;;;;;;;20.56;39.64;101196.28;4960209;28;20281;-78
2022/04/21 07:28:04;;;;;;;;;;;;;;;20.56;39.71;101196.28;4949679;29;19927;-78
2022/04/21 07:30:30;;;;;;;;;;;;;;;20.56;39.71;101198.19;4949165;29;19929;-79
2022/04/21 07:32:55;;;;;;;;;;;;;;;20.56;39.84;101193.53;4952163;29;20258;-78
2022/04/21 07:35:20;;;;;;;;;;;;;;;20.56;39.67;101190.78;4952039;28;20295;-79
2022/04/21 07:37:46;;;;;;;;;;;;;;;20.56;39.68;101192.72;4963943;28;20014;-78
2022/04/21 07:40:12;;;;;;;;;;;;;;;20.56;39.73;101187.22;4958261;28;19918;-78
2022/04/21 07:42:37;;;;;;;;;;;;;;;20.57;39.81;101191.63;4953281;29;20035;-78
2022/04/21 07:45:02;;;;;;;;;;;;;;;20.56;39.53;101179.81;4951677;29;19937;-78
2022/04/21 07:47:28;;;;;;;;;;;;;;;20.56;39.74;101184.47;4945119;28;19926;-78
2022/04/21 07:49:53;;;;;;;;;;;;;;;20.55;39.68;101183.69;4952107;29;19923;-78
2022/04/21 07:55:05;;;;;;;;;;;;;;;20.55;39.79;101180.94;4951824;29;19925;-78
2022/04/21 07:57:31;;;;;;;;;;;;;;;20.54;39.61;101171.03;4967731;28;19926;-78
2022/04/21 07:59:56;;;;;;;;;;;;;;;20.54;39.60;101176.53;4945797;29;20288;-79
2022/04/21 08:02:21;;;;;;;;;;;;;;;20.54;39.75;101176.53;4949511;29;19922;-79
2022/04/21 08:04:48;;;;;;;;;;;;;;;20.53;39.73;101178.44;4947806;29;19931;-79
2022/04/21 08:07:13;;;;;;;;;;;;;;;20.53;39.43;101178.44;4944295;28;19949;-79
2022/04/21 08:09:39;;;;;;;;;;;;;;;20.53;39.54;101175.69;4952846;28;20650;-79
2022/04/21 08:12:04;;;;;;;;;;;;;;;20.53;39.56;101183.13;4952866;28;19929;-79
2022/04/21 08:14:30;;;;;;;;;;;;;;;20.54;39.37;101187.50;4966608;28;19933;-78
2022/04/21 08:16:55;;;;;;;;;;;;;;;20.53;39.62;101175.69;4951885;29;20384;-79
2022/04/21 08:19:21;;;;;;;;;;;;;;;20.54;39.59;101179.28;4951452;28;19930;-79
2022/04/21 08:21:47;;;;;;;;;;;;;;;20.54;39.49;101184.78;4967803;28;19926;-79
2022/04/21 08:32:33;;;;;;;;;;;;;;;20.55;39.60;101186.41;4946572;29;19930;-79
2022/04/21 08:34:59;;;;;;;;;;;;;;;20.53;39.50;101181.19;4951215;28;19922;-80
2022/04/21 08:37:24;;;;;;;;;;;;;;;20.54;39.53;101182.03;4933833;29;20309;-80
2022/04/21 08:39:49;;;;;;;;;;;;;;;20.54;39.22;101176.53;4951737;29;19922;-80
2022/04/21 08:42:15;;;;;;;;;;;;;;;20.54;39.28;101176.53;4951171;28;19922;-80
2022/04/21 08:44:43;;;;;;;;;;;;;;;20.54;39.60;101179.28;4952236;28;19922;-79
2022/04/21 08:47:10;;;;;;;;;;;;;;;20.54;39.37;101179.28;4945277;28;19936;-79
2022/04/21 08:49:38;;;;;;;;;;;;;;;20.55;39.45;101182.88;4944279;29;19923;-79
2022/04/21 08:52:04;;;;;;;;;;;;;;;20.53;39.40;101186.66;4952036;29;20302;-79
2022/04/21 08:54:30;;;;;;;;;;;;;;;20.54;39.17;101179.28;4952323;29;20021;-79
2022/04/21 08:56:56;;;;;;;;;;;;;;;20.55;39.25;101185.59;4949697;28;19926;-81
2022/04/21 08:59:22;;;;;;;;;;;;;;;20.55;39.43;101189.16;4951852;29;20025;-82
2022/04/21 09:01:48;;;;;;;;;;;;;;;20.55;39.34;101189.16;4963829;28;20038;-81
2022/04/21 09:04:13;;;;;;;;;;;;;;;20.55;39.17;101178.19;4940452;29;19923;-81
2022/04/21 09:06:38;;;;;;;;;;;;;;;20.55;39.25;101174.63;4942403;29;19927;-82
2022/04/21 09:09:14;;;;;;;;;;;;;;;20.55;39.40;101178.19;4951042;29;20287;-82
2022/04/21 09:11:41;;;;;;;;;;;;;;;20.55;39.21;101169.16;4963886;28;19926;-81
2022/04/21 09:14:06;;;;;;;;;;;;;;;20.55;39.30;101180.13;4937118;29;19981;-81
2022/04/21 09:16:35;;;;;;;;;;;;;;;20.55;39.15;101172.69;4946589;29;20332;-80
2022/04/21 09:19:03;;;;;;;;;;;;;;;20.56;39.10;101171.56;4947904;29;19926;-80
2022/04/21 09:21:38;;;;;;;;;;;;;;;20.56;38.92;101170.75;4933536;29;19919;-80
2022/04/21 09:24:23;;;;;;;;;;;;;;;20.56;39.14;101166.09;4942250;29;19923;-81
2022/04/21 09:26:49;;;;;;;;;;;;;;;20.55;39.01;101167.22;4949113;29;20383;-80
2022/04/21 09:29:34;;;;;;;;;;;;;;;20.56;39.03;101160.59;4947572;29;19973;-80
2022/04/21 09:32:00;;;;;;;;;;;;;;;20.56;39.18;101163.34;4947344;29;19937;-78
2022/04/21 09:34:25;;;;;;;;;;;;;;;20.57;39.18;101164.97;4939346;29;19922;-80
2022/04/21 09:36:53;;;;;;;;;;;;;;;20.57;38.86;101156.75;4949909;28;20009;-80
2022/04/21 09:39:18;;;;;;;;;;;;;;;20.58;39.18;101161.13;4944851;29;20363;-80
2022/04/21 09:41:44;;;;;;;;;;;;;;;20.59;39.09;101154.53;4951050;29;19996;-82
2022/04/21 09:46:56;;;;;;;;;;;;;;;20.59;39.32;101156.44;4951553;29;19973;-82
2022/04/21 09:49:34;;;;;;;;;;;;;;;20.60;39.43;101161.63;4954784;28;19923;-82
2022/04/21 09:51:59;;;;;;;;;;;;;;;20.60;39.34;101155.34;4938016;29;20001;-79
2022/04/21 09:54:28;;;;;;;;;;;;;;;20.62;39.31;101153.09;4953712;29;20398;-81
2022/04/21 09:56:53;;;;;;;;;;;;;;;20.61;39.33;101157.75;4957020;28;19961;-81
2022/04/21 09:59:19;;;;;;;;;;;;;;;20.62;39.23;101148.44;4969130;28;20378;-82
2022/04/21 10:01:44;;;;;;;;;;;;;;;20.62;39.15;101140.19;4955439;29;19926;-82
2022/04/21 10:04:17;;;;;;;;;;;;;;;20.63;39.25;101147.31;4952464;29;19922;-82
2022/04/21 10:06:44;;;;;;;;;;;;;;;20.63;39.23;101144.56;4964260;28;20044;-82
2022/04/21 10:09:10;;;;;;;;;;;;;;;20.65;39.33;101138.78;4947091;29;19926;-82
2022/04/21 10:11:38;;;;;;;;;;;;;;;20.65;39.41;101130.53;4953476;29;20018;-82
2022/04/21 10:14:04;;;;;;;;;;;;;;;20.65;39.11;101133.28;4954004;29;19926;-82
2022/04/21 10:16:29;;;;;;;;;;;;;;;20.66;39.03;101126.66;4956116;28;19929;-83
2022/04/21 10:18:55;;;;;;;;;;;;;;;20.66;39.30;101123.94;4952772;29;19934;-81
2022/04/21 10:21:36;;;;;;;;;;;;;;;20.66;39.05;101121.19;4941436;29;19930;-82
2022/04/21 10:24:02;;;;;;;;;;;;;;;20.66;39.31;101110.19;4939912;29;19977;-81
2022/04/21 10:26:37;;;;;;;;;;;;;;;20.66;39.23;101112.94;4948688;28;19927;-82
2022/04/21 10:29:13;;;;;;;;;;;;;;;20.66;39.17;101119.28;4966075;28;19918;-82
2022/04/21 10:32:00;;;;;;;;;;;;;;;20.66;39.03;101116.53;4945683;28;19930;-83
2022/04/21 10:34:28;;;;;;;;;;;;;;;20.67;39.07;101111.84;4948505;29;19969;-82
2022/04/21 10:37:12;;;;;;;;;;;;;;;20.67;39.36;101107.16;4961360;28;19922;-82
2022/04/21 10:39:38;;;;;;;;;;;;;;;20.69;39.38;101106.88;4956776;28;19919;-82
2022/04/21 10:42:14;;;;;;;;;;;;;;;20.67;39.22;101107.16;4941381;29;19923;-80
2022/04/21 10:44:42;;;;;;;;;;;;;;;20.67;39.02;101107.16;4944408;29;20270;-80
2022/04/21 10:47:26;;;;;;;;;;;;;;;20.69;38.94;101099.44;4951066;29;19966;-81
2022/04/21 10:49:57;;;;;;;;;;;;;;;20.69;39.08;101098.66;4939126;28;19922;-81
2022/04/21 10:57:44;;;;;;;;;;;;;;;20.69;39.20;101085.72;4954284;29;20069;-81
2022/04/21 11:00:22;;;;;;;;;;;;;;;20.70;39.08;101092.84;4951284;28;20275;-78
2022/04/21 11:02:47;;;;;;;;;;;;;;;20.70;38.94;101087.34;4951709;29;20017;-79
2022/04/21 11:05:21;;;;;;;;;;;;;;;20.72;39.04;101079.63;4949894;29;20069;-82
2022/04/21 11:07:51;;;;;;;;;;;;;;;20.72;39.04;101071.38;4953611;29;19918;-79
2022/04/21 11:10:25;;;;;;;;;;;;;;;20.74;39.13;101071.09;4954729;28;20302;-79
2022/04/21 11:12:50;;;;;;;;;;;;;;;20.75;39.26;101075.47;4954192;28;20009;-79
2022/04/21 11:15:29;;;;;;;;;;;;;;;20.75;39.22;101073.53;4955067;28;20062;-79
2022/04/21 11:17:59;;;;;;;;;;;;;;;20.77;39.31;101069.69;4955025;28;19962;-79
2022/04/21 11:20:25;;;;;;;;;;;;;;;20.77;39.31;101059.50;4936469;29;20311;-80
2022/04/21 11:22:51;;;;;;;;;;;;;;;20.78;39.03;101065.81;4952206;29;19962;-80
2022/04/21 11:25:16;;;;;;;;;;;;;;;20.78;39.23;101061.13;4951296;28;19985;-80
2022/04/21 11:27:43;;;;;;;;;;;;;;;20.79;39.16;101056.44;4969026;28;20378;-80
2022/04/21 11:30:10;;;;;;;;;;;;;;;20.79;38.99;101054.53;4954332;28;20307;-80
2022/04/21 11:32:36;;;;;;;;;;;;;;;20.81;38.98;101051.47;4950939;29;20334;-80
2022/04/21 11:35:01;;;;;;;;;;;;;;;20.80;38.85;101050.66;4935892;29;20375;-80
2022/04/21 11:37:45;;;;;;;;;;;;;;;20.82;39.19;101044.88;4955725;29;20301;-80
2022/04/21 11:40:24;;;;;;;;;;;;;;;20.83;39.14;101049.22;4968876;28;20275;-79
2022/04/21 11:42:50;;;;;;;;;;;;;;;20.83;39.03;101047.28;4954962;28;19922;-79
2022/04/21 11:45:22;;;;;;;;;;;;;;;20.83;39.09;101043.75;4968375;28;20264;-79
2022/04/21 11:47:48;;;;;;;;;;;;;;;20.84;39.19;101039.88;4953518;29;19918;-79
2022/04/21 11:50:20;;;;;;;;;;;;;;;20.83;39.08;101041.00;4955567;28;19937;-79
2022/04/21 11:52:46;;;;;;;;;;;;;;;20.85;39.20;101044.25;4954299;29;20291;-79
2022/04/21 11:55:14;;;;;;;;;;;;;;;20.85;39.20;101038.75;4950398;28;19965;-80
2022/04/21 11:57:39;;;;;;;;;;;;;;;20.85;39.05;101047.81;4954421;29;19922;-80
2022/04/21 12:00:05;;;;;;;;;;;;;;;20.86;39.21;101032.13;4954894;28;20057;-79
2022/04/21 12:06:28;;;;;;;;;;;;;;;20.86;39.17;101030.19;4950905;29;20446;-79
2022/04/21 12:08:03;;;;;;;;;;;;;;;20.87;39.27;101031.84;4954322;28;19923;-79
2022/04/21 12:10:28;;;;;;;;;;;;;;;20.87;39.29;101031.84;4954464;28;19933;-79
2022/04/21 12:12:53;;;;;;;;;;;;;;;20.89;39.38;101026.03;4966482;28;19965;-79
2022/04/21 12:15:29;;;;;;;;;;;;;;;20.90;39.12;101033.16;4953136;28;19965;-79
2022/04/21 12:18:04;;;;;;;;;;;;;;;20.90;39.25;101027.69;4946973;28;19922;-80
2022/04/21 12:20:29;;;;;;;;;;;;;;;20.90;39.43;101027.69;4954910;29;19927;-79
2022/04/21 12:22:55;;;;;;;;;;;;;;;20.91;39.10;101010.88;4968039;28;20394;-79
2022/04/21 12:25:30;;;;;;;;;;;;;;;20.92;39.14;101006.22;4949838;28;19923;-79
2022/04/21 12:27:55;;;;;;;;;;;;;;;20.93;39.45;101014.13;4947810;29;19919;-79
2022/04/21 12:30:21;;;;;;;;;;;;;;;20.93;39.41;101002.34;4954576;29;20426;-80
2022/04/21 12:32:47;;;;;;;;;;;;;;;20.94;39.15;101014.94;4953895;28;19923;-79
2022/04/21 12:35:13;;;;;;;;;;;;;;;20.95;39.40;101005.59;4938982;29;19934;-80
2022/04/21 12:37:39;;;;;;;;;;;;;;;20.95;39.44;101009.16;4951210;29;19930;-79
2022/04/21 12:40:06;;;;;;;;;;;;;;;20.95;39.33;101005.59;4952502;29;20291;-79
2022/04/21 12:42:32;;;;;;;;;;;;;;;20.95;39.45;101000.91;4942670;29;19918;-79
2022/04/21 12:44:58;;;;;;;;;;;;;;;20.97;39.54;101000.63;4960958;28;19949;-79
2022/04/21 12:47:23;;;;;;;;;;;;;;;20.97;39.15;100997.88;4943471;28;19950;-79
2022/04/21 12:49:57;;;;;;;;;;;;;;;20.99;39.52;100992.06;4945593;29;19927;-79
2022/04/21 12:52:42;;;;;;;;;;;;;;;20.98;39.39;100980.28;4953460;28;20020;-80
2022/04/21 12:55:13;;;;;;;;;;;;;;;20.99;39.50;100989.31;4954152;28;19918;-79
2022/04/21 12:57:39;;;;;;;;;;;;;;;21.00;39.18;100989.03;4948048;29;19977;-79
2022/04/21 13:00:06;;;;;;;;;;;;;;;21.00;39.32;100991.78;4967585;28;20025;-79
2022/04/21 13:02:31;;;;;;;;;;;;;;;21.02;39.57;100975.00;4954062;29;19923;-80
2022/04/21 13:04:57;;;;;;;;;;;;;;;21.01;39.24;100974.16;4949156;29;20320;-80
2022/04/21 13:07:23;;;;;;;;;;;;;;;21.02;39.46;100973.06;4958775;28;20490;-79
2022/04/21 13:09:49;;;;;;;;;;;;;;;21.03;39.60;100974.66;4946627;28;19934;-79
2022/04/21 13:12:14;;;;;;;;;;;;;;;21.04;39.32;100967.25;4949900;29;19982;-80
2022/04/21 13:14:39;;;;;;;;;;;;;;;21.04;39.57;100957.09;4954054;29;20008;-80
2022/04/21 13:17:05;;;;;;;;;;;;;;;21.05;39.23;100957.91;4953184;29;19938;-80
2022/04/21 13:19:30;;;;;;;;;;;;;;;21.06;39.24;100951.28;4945759;28;19927;-80
2022/04/21 13:21:55;;;;;;;;;;;;;;;21.05;39.50;100936.72;4953190;29;20434;-79
2022/04/21 13:24:21;;;;;;;;;;;;;;;21.06;39.38;100934.78;4970576;28;19937;-80